createdAt,value
2023-01-01T00:51:01.069Z,98951.63
2023-01-01T00:53:29.763Z,98958.13
2023-01-01T00:55:58.843Z,98958.72
2023-01-01T00:58:28.119Z,98953.09
2023-01-01T01:00:57.379Z,98951.13
2023-01-01T01:03:29.217Z,98945.50
2023-01-01T01:06:09.155Z,98952.44
2023-01-01T01:08:40.656Z,98952.69
2023-01-01T01:11:11.999Z,98961.88
2023-01-01T01:13:42.972Z,98958.47
2023-01-01T01:16:14.357Z,98949.59
2023-01-01T01:18:43.633Z,98945.84
2023-01-01T01:21:17.559Z,98964.66
2023-01-01T01:23:46.340Z,98964.09
2023-01-01T01:26:19.540Z,98970.50
2023-01-01T01:28:50.057Z,98967.75
2023-01-01T01:31:20.315Z,98967.50
2023-01-01T01:33:50.552Z,98972.06
2023-01-01T01:36:21.436Z,98966.13
2023-01-01T01:38:50.474Z,98962.38
2023-01-01T01:41:27.838Z,98966.59
2023-01-01T01:44:02.100Z,98968.72
2023-01-01T01:46:38.605Z,98964.97
2023-01-01T01:49:18.959Z,98972.47
2023-01-01T01:51:50.619Z,98974.56
2023-01-01T01:54:25.269Z,98980.38
2023-01-01T01:57:00.236Z,98979.94
2023-01-01T01:59:34.763Z,98982.31
2023-01-01T02:02:03.946Z,98977.44
2023-01-01T02:04:33.623Z,98979.84
2023-01-01T02:07:03.969Z,98976.97
2023-01-01T02:09:32.916Z,98976.38
2023-01-01T02:12:01.746Z,98978.59
2023-01-01T02:14:30.834Z,98979.06
2023-01-01T02:17:08.723Z,98980.00
2023-01-01T02:20:03.931Z,98971.88
2023-01-01T02:23:04.233Z,98972.72
2023-01-01T02:25:50.796Z,98978.06
2023-01-01T02:28:46.822Z,98980.97
2023-01-01T02:31:23.996Z,98973.44
2023-01-01T02:33:57.927Z,98975.44
2023-01-01T02:36:29.808Z,98970.09
2023-01-01T02:39:02.963Z,98975.66
2023-01-01T02:41:37.816Z,98971.34
2023-01-01T02:44:08.717Z,98966.72
2023-01-01T02:46:38.405Z,98974.28
2023-01-01T02:49:10.669Z,98974.75
2023-01-01T02:52:04.231Z,98971.50
2023-01-01T02:54:43.432Z,98971.19
2023-01-01T02:57:26.691Z,98973.63
2023-01-01T03:00:19.710Z,98961.19
2023-01-01T03:03:14.147Z,98972.97
2023-01-01T03:06:11.029Z,98962.78
2023-01-01T03:08:50.801Z,98973.28
2023-01-01T03:11:25.252Z,98966.78
2023-01-01T03:14:05.520Z,98961.06
2023-01-01T03:16:43.137Z,98963.75
2023-01-01T03:19:20.103Z,98960.50
2023-01-01T03:21:55.960Z,98962.38
2023-01-01T03:24:34.042Z,98964.81
2023-01-01T03:27:08.790Z,98968.56
2023-01-01T03:29:42.403Z,98969.56
2023-01-01T03:32:19.935Z,98970.97
2023-01-01T03:34:55.049Z,98967.25
2023-01-01T03:37:31.145Z,98964.81
2023-01-01T03:40:01.404Z,98962.03
2023-01-01T03:42:39.200Z,98965.75
2023-01-01T03:45:15.155Z,98963.19
2023-01-01T03:47:45.404Z,98968.56
2023-01-01T03:50:16.164Z,98968.31
2023-01-01T03:52:55.974Z,98974.38
2023-01-01T03:55:33.169Z,98969.25
2023-01-01T03:58:11.160Z,98971.94
2023-01-01T04:00:47.410Z,98969.50
2023-01-01T04:03:23.857Z,98975.09
2023-01-01T04:05:53.130Z,98974.25
2023-01-01T04:08:22.500Z,98976.63
2023-01-01T04:11:00.112Z,98968.81
2023-01-01T04:13:28.823Z,98975.47
2023-01-01T04:15:57.629Z,98970.91
2023-01-01T04:18:27.758Z,98978.97
2023-01-01T04:20:56.465Z,98982.44
2023-01-01T04:23:25.164Z,98985.84
2023-01-01T04:25:53.782Z,98985.25
2023-01-01T04:28:23.010Z,98979.34
2023-01-01T04:33:21.886Z,98990.50
2023-01-01T04:35:51.965Z,98992.63
2023-01-01T04:38:20.601Z,98992.94
2023-01-01T04:40:59.623Z,98993.19
2023-01-01T04:43:28.394Z,99004.97
2023-01-01T04:45:58.542Z,99005.47
2023-01-01T04:48:28.235Z,98999.75
2023-01-01T04:51:04.396Z,98998.44
2023-01-01T04:53:35.890Z,99002.66
2023-01-01T04:56:06.633Z,98997.88
2023-01-01T04:58:36.439Z,99003.47
2023-01-01T05:01:06.280Z,98996.25
2023-01-01T05:03:35.861Z,98992.66
2023-01-01T05:06:10.121Z,98992.41
2023-01-01T05:08:41.002Z,98995.78
2023-01-01T05:11:13.070Z,99001.13
2023-01-01T05:13:44.366Z,99001.13
2023-01-01T05:16:16.419Z,98996.38
2023-01-01T05:18:46.331Z,99000.31
2023-01-01T05:21:18.996Z,99001.63
2023-01-01T05:23:47.853Z,99003.72
2023-01-01T05:26:21.870Z,99009.66
2023-01-01T05:28:51.255Z,99008.28
2023-01-01T05:31:22.444Z,99000.00
2023-01-01T05:33:52.634Z,99003.94
2023-01-01T05:36:26.285Z,99008.72
2023-01-01T05:38:55.388Z,99009.53
2023-01-01T05:41:25.767Z,99007.09
2023-01-01T05:43:55.248Z,99016.19
2023-01-01T05:46:26.079Z,99014.09
2023-01-01T05:48:56.157Z,99025.16
2023-01-01T05:51:29.807Z,99016.06
2023-01-01T05:54:00.183Z,99015.72
2023-01-01T05:56:30.570Z,99024.34
2023-01-01T05:58:59.311Z,99022.69
2023-01-01T06:01:31.607Z,99022.13
2023-01-01T06:04:01.765Z,99022.69
2023-01-01T06:06:34.162Z,99021.06
2023-01-01T06:09:06.696Z,99022.69
2023-01-01T06:11:36.172Z,99019.00
2023-01-01T06:14:04.883Z,99020.00
2023-01-01T06:16:34.302Z,99029.09
2023-01-01T06:19:03.059Z,99027.25
2023-01-01T06:21:33.121Z,99035.50
2023-01-01T06:24:02.176Z,99044.59
2023-01-01T06:26:34.198Z,99049.03
2023-01-01T06:29:04.500Z,99043.66
2023-01-01T06:31:40.594Z,99046.09
2023-01-01T06:34:10.387Z,99042.72
2023-01-01T06:36:41.009Z,99053.44
2023-01-01T06:39:10.167Z,99045.16
2023-01-01T06:41:39.091Z,99044.13
2023-01-01T06:44:07.924Z,99052.97
2023-01-01T06:46:38.329Z,99062.06
2023-01-01T06:49:11.577Z,99060.78
2023-01-01T06:51:44.228Z,99062.19
2023-01-01T06:54:13.235Z,99056.94
2023-01-01T06:56:41.940Z,99062.06
2023-01-01T06:59:10.587Z,99072.31
2023-01-01T07:01:43.946Z,99074.41
2023-01-01T07:04:16.900Z,99078.50
2023-01-01T07:06:46.993Z,99081.50
2023-01-01T07:09:16.760Z,99082.56
2023-01-01T07:11:45.419Z,99088.41
2023-01-01T07:14:14.112Z,99096.19
2023-01-01T07:17:12.706Z,99097.13
2023-01-01T07:19:42.732Z,99099.81
2023-01-01T07:22:13.397Z,99092.59
2023-01-01T07:25:08.228Z,99099.00
2023-01-01T07:27:37.034Z,99101.69
2023-01-01T07:33:18.711Z,99119.63
2023-01-01T07:35:51.182Z,99116.94
2023-01-01T07:38:21.295Z,99132.78
2023-01-01T07:40:51.101Z,99135.22
2023-01-01T07:43:19.915Z,99141.63
2023-01-01T07:45:49.946Z,99135.47
2023-01-01T07:48:18.729Z,99142.19
2023-01-01T07:50:54.691Z,99146.75
2023-01-01T07:53:25.199Z,99136.38
2023-01-01T07:55:53.957Z,99141.28
2023-01-01T07:58:23.667Z,99139.66
2023-01-01T08:00:52.652Z,99163.66
2023-01-01T08:03:22.235Z,99164.00
2023-01-01T08:05:51.475Z,99175.19
2023-01-01T08:08:20.144Z,99156.78
2023-01-01T08:10:50.257Z,99166.44
2023-01-01T08:13:18.875Z,99160.50
2023-01-01T08:15:47.578Z,99162.72
2023-01-01T08:18:16.263Z,99159.69
2023-01-01T08:20:45.055Z,99158.75
2023-01-01T08:23:13.825Z,99166.88
2023-01-01T08:25:43.517Z,99161.19
2023-01-01T08:28:13.759Z,99167.91
2023-01-01T08:30:42.688Z,99181.34
2023-01-01T08:33:11.364Z,99176.56
2023-01-01T08:35:46.632Z,99179.34
2023-01-01T08:38:19.093Z,99195.91
2023-01-01T08:40:47.872Z,99185.84
2023-01-01T08:43:18.071Z,99194.00
2023-01-01T08:45:47.183Z,99209.03
2023-01-01T08:48:15.969Z,99208.94
2023-01-01T08:50:44.631Z,99208.47
2023-01-01T08:53:13.839Z,99213.03
2023-01-01T08:55:42.448Z,99208.47
2023-01-01T08:58:11.071Z,99206.72
2023-01-01T09:00:41.198Z,99208.22
2023-01-01T09:03:10.088Z,99216.69
2023-01-01T09:05:38.882Z,99219.00
2023-01-01T09:08:08.348Z,99214.31
2023-01-01T09:10:37.229Z,99229.94
2023-01-01T09:13:06.094Z,99225.72
2023-01-01T09:15:35.931Z,99238.34
2023-01-01T09:18:10.002Z,99238.66
2023-01-01T09:20:39.667Z,99238.44
2023-01-01T09:23:10.494Z,99247.88
2023-01-01T09:25:41.965Z,99244.47
2023-01-01T09:28:21.814Z,99252.84
2023-01-01T09:30:54.837Z,99264.75
2023-01-01T09:33:25.062Z,99260.28
2023-01-01T09:35:53.814Z,99256.91
2023-01-01T09:38:22.686Z,99245.19
2023-01-01T09:41:09.147Z,99255.94
2023-01-01T09:43:47.707Z,99242.41
2023-01-01T09:46:16.899Z,99246.91
2023-01-01T09:48:56.550Z,99256.44
2023-01-01T09:51:31.990Z,99242.66
2023-01-01T09:54:11.918Z,99246.50
2023-01-01T09:56:46.153Z,99238.97
2023-01-01T09:59:14.956Z,99233.13
2023-01-01T10:01:52.324Z,99236.47
2023-01-01T10:04:42.763Z,99227.44
2023-01-01T10:07:26.033Z,99238.28
2023-01-01T10:10:09.573Z,99228.06
2023-01-01T10:12:54.779Z,99241.09
2023-01-01T10:15:31.395Z,99243.69
2023-01-01T10:18:05.506Z,99242.69
2023-01-01T10:20:42.468Z,99238.44
2023-01-01T10:23:20.444Z,99239.00
2023-01-01T10:25:49.193Z,99239.13
2023-01-01T10:28:28.168Z,99227.88
2023-01-01T10:31:16.541Z,99245.91
2023-01-01T10:33:47.673Z,99239.75
2023-01-01T10:36:20.991Z,99243.03
2023-01-01T10:38:51.234Z,99243.03
2023-01-01T10:41:20.798Z,99252.19
2023-01-01T10:43:51.052Z,99243.03
2023-01-01T10:46:31.664Z,99231.22
2023-01-01T10:49:13.549Z,99227.69
2023-01-01T10:51:49.505Z,99220.00
2023-01-01T10:54:34.693Z,99215.22
2023-01-01T10:57:16.301Z,99226.66
2023-01-01T10:59:51.997Z,99231.03
2023-01-01T11:02:25.447Z,99220.31
2023-01-01T11:05:21.026Z,99224.47
2023-01-01T11:07:52.239Z,99242.53
2023-01-01T11:10:25.697Z,99237.78
2023-01-01T11:13:10.241Z,99237.88
2023-01-01T11:15:43.347Z,99234.75
2023-01-01T11:18:17.432Z,99236.69
2023-01-01T11:20:53.166Z,99224.06
2023-01-01T11:23:33.281Z,99233.25
2023-01-01T11:26:08.864Z,99225.75
2023-01-01T11:28:38.054Z,99227.66
2023-01-01T11:31:19.053Z,99201.28
2023-01-01T11:33:52.719Z,99211.78
2023-01-01T11:36:28.209Z,99197.19
2023-01-01T11:39:21.251Z,99193.19
2023-01-01T11:41:52.773Z,99195.06
2023-01-01T11:44:33.592Z,99186.47
2023-01-01T11:47:08.637Z,99186.97
2023-01-01T11:49:37.601Z,99185.34
2023-01-01T11:52:35.627Z,99198.00
2023-01-01T11:55:22.213Z,99184.22
2023-01-01T11:58:19.653Z,99200.47
2023-01-01T12:00:55.907Z,99204.25
2023-01-01T12:03:33.848Z,99199.38
2023-01-01T12:06:13.877Z,99191.03
2023-01-01T12:08:54.269Z,99204.81
2023-01-01T12:11:33.084Z,99202.41
2023-01-01T12:14:19.996Z,99200.78
2023-01-01T12:17:01.104Z,99203.50
2023-01-01T12:19:41.527Z,99201.88
2023-01-01T12:22:19.183Z,99192.44
2023-01-01T12:24:51.156Z,99188.66
2023-01-01T12:27:53.171Z,99198.16
2023-01-01T12:30:25.298Z,99188.19
2023-01-01T12:33:29.079Z,99199.97
2023-01-01T12:36:25.112Z,99201.34
2023-01-01T12:40:00.943Z,99202.16
2023-01-01T12:42:53.286Z,99206.50
2023-01-01T12:45:56.486Z,99207.00
2023-01-01T12:49:27.797Z,99210.88
2023-01-01T12:52:14.779Z,99205.16
2023-01-01T12:55:42.556Z,99195.72
2023-01-01T12:58:21.217Z,99193.03
2023-01-01T13:01:07.164Z,99188.66
2023-01-01T13:03:50.542Z,99183.50
2023-01-01T13:06:28.596Z,99183.25
2023-01-01T13:09:07.136Z,99180.41
2023-01-01T13:11:44.563Z,99184.22
2023-01-01T13:14:15.845Z,99179.41
2023-01-01T13:16:53.606Z,99177.25
2023-01-01T13:19:33.592Z,99181.59
2023-01-01T13:22:42.206Z,99172.94
2023-01-01T13:25:26.506Z,99177.22
2023-01-01T13:28:15.440Z,99187.44
2023-01-01T13:30:51.097Z,99191.19
2023-01-01T13:33:29.235Z,99189.53
2023-01-01T13:36:36.404Z,99202.91
2023-01-01T13:39:11.997Z,99200.47
2023-01-01T13:41:47.705Z,99202.63
2023-01-01T13:44:23.973Z,99217.97
2023-01-01T13:47:19.457Z,99209.84
2023-01-01T13:50:16.418Z,99207.91
2023-01-01T13:53:12.035Z,99207.56
2023-01-01T13:56:18.284Z,99222.88
2023-01-01T13:59:37.204Z,99220.13
2023-01-01T14:02:25.032Z,99218.69
2023-01-01T14:05:01.412Z,99230.47
2023-01-01T14:07:51.143Z,99236.03
2023-01-01T14:10:29.050Z,99237.34
2023-01-01T14:13:17.273Z,99241.06
2023-01-01T14:15:55.851Z,99256.56
2023-01-01T14:18:35.947Z,99253.47
2023-01-01T14:21:10.784Z,99259.94
2023-01-01T14:23:44.452Z,99266.06
2023-01-01T14:26:19.079Z,99270.88
2023-01-01T14:28:49.693Z,99266.75
2023-01-01T14:31:22.463Z,99277.16
2023-01-01T14:33:51.387Z,99278.16
2023-01-01T14:36:25.409Z,99282.88
2023-01-01T14:38:56.060Z,99284.78
2023-01-01T14:41:30.429Z,99293.00
2023-01-01T14:44:23.117Z,99300.75
2023-01-01T14:46:55.080Z,99299.00
2023-01-01T14:49:32.339Z,99294.34
2023-01-01T14:52:15.784Z,99308.28
2023-01-01T14:54:47.623Z,99298.97
2023-01-01T14:57:22.021Z,99305.66
2023-01-01T14:59:54.904Z,99316.56
2023-01-01T15:02:26.351Z,99316.56
2023-01-01T15:04:56.522Z,99323.72
2023-01-01T15:07:30.870Z,99316.94
2023-01-01T15:10:03.665Z,99320.59
2023-01-01T15:12:37.408Z,99313.03
2023-01-01T15:15:43.723Z,99324.50
2023-01-01T15:18:42.497Z,99314.13
2023-01-01T15:21:20.342Z,99317.06
2023-01-01T15:23:56.472Z,99318.25
2023-01-01T15:26:33.828Z,99308.31
2023-01-01T15:29:08.693Z,99316.28
2023-01-01T15:31:43.789Z,99318.22
2023-01-01T15:34:29.758Z,99326.50
2023-01-01T15:37:09.489Z,99324.63
2023-01-01T15:39:49.710Z,99334.69
2023-01-01T15:42:37.970Z,99331.91
2023-01-01T15:45:23.397Z,99332.97
2023-01-01T15:47:57.258Z,99333.22
2023-01-01T15:50:31.860Z,99341.03
2023-01-01T15:53:09.390Z,99345.59
2023-01-01T15:55:47.220Z,99341.38
2023-01-01T15:58:23.437Z,99335.09
2023-01-01T16:00:59.503Z,99336.25
2023-01-01T16:03:33.456Z,99336.25
2023-01-01T16:06:02.879Z,99336.13
2023-01-01T16:08:31.879Z,99329.25
2023-01-01T16:11:02.912Z,99334.84
2023-01-01T16:13:32.108Z,99326.91
2023-01-01T16:16:04.621Z,99325.28
2023-01-01T16:18:37.554Z,99331.59
2023-01-01T16:21:07.558Z,99328.53
2023-01-01T16:23:37.477Z,99321.53
2023-01-01T16:26:06.654Z,99327.72
2023-01-01T16:28:35.847Z,99320.41
2023-01-01T16:31:04.778Z,99327.03
2023-01-01T16:33:34.939Z,99319.69
2023-01-01T16:36:04.020Z,99321.91
2023-01-01T16:38:32.891Z,99320.13
2023-01-01T16:41:02.945Z,99319.06
2023-01-01T16:43:47.992Z,99321.06
2023-01-01T16:46:26.692Z,99324.31
2023-01-01T16:48:57.133Z,99327.25
2023-01-01T16:51:29.885Z,99332.03
2023-01-01T16:54:00.950Z,99332.72
2023-01-01T16:56:30.305Z,99329.00
2023-01-01T16:59:03.578Z,99327.81
2023-01-01T17:01:33.479Z,99328.06
2023-01-01T17:04:04.499Z,99329.94
2023-01-01T17:06:34.710Z,99330.38
2023-01-01T17:09:03.501Z,99351.13
2023-01-01T17:11:33.876Z,99340.78
2023-01-01T17:14:03.697Z,99338.34
2023-01-01T17:16:38.684Z,99331.31
2023-01-01T17:19:16.177Z,99339.34
2023-01-01T17:21:50.221Z,99324.69
2023-01-01T17:24:22.287Z,99335.66
2023-01-01T17:26:55.161Z,99332.72
2023-01-01T17:29:25.553Z,99338.91
2023-01-01T17:31:55.073Z,99331.78
2023-01-01T17:34:25.866Z,99329.69
2023-01-01T17:36:55.146Z,99325.94
2023-01-01T17:39:24.187Z,99332.97
2023-01-01T17:41:54.519Z,99335.16
2023-01-01T17:44:23.743Z,99330.84
2023-01-01T17:46:55.030Z,99327.59
2023-01-01T17:49:26.268Z,99317.22
2023-01-01T17:51:56.158Z,99331.91
2023-01-01T17:54:26.106Z,99341.09
2023-01-01T17:56:55.149Z,99324.00
2023-01-01T17:59:25.181Z,99322.44
2023-01-01T18:01:55.133Z,99325.94
2023-01-01T18:04:27.349Z,99324.00
2023-01-01T18:06:59.667Z,99320.69
2023-01-01T18:09:32.095Z,99322.31
2023-01-01T18:12:01.965Z,99320.25
2023-01-01T18:14:32.392Z,99321.31
2023-01-01T18:17:02.184Z,99314.41
2023-01-01T18:19:32.670Z,99316.25
2023-01-01T18:22:01.538Z,99319.56
2023-01-01T18:24:30.639Z,99320.69
2023-01-01T18:26:59.804Z,99325.00
2023-01-01T18:29:28.968Z,99324.19
2023-01-01T18:31:58.726Z,99327.25
2023-01-01T18:34:29.367Z,99326.31
2023-01-01T18:37:00.035Z,99329.34
2023-01-01T18:39:33.475Z,99330.75
2023-01-01T18:42:35.488Z,99328.63
2023-01-01T18:45:18.348Z,99321.19
2023-01-01T18:47:48.377Z,99332.97
2023-01-01T18:50:25.667Z,99325.03
2023-01-01T18:53:04.415Z,99329.97
2023-01-01T18:55:34.053Z,99326.22
2023-01-01T18:58:18.827Z,99320.63
2023-01-01T19:00:49.182Z,99319.91
2023-01-01T19:03:28.208Z,99323.66
2023-01-01T19:06:00.382Z,99320.16
2023-01-01T19:08:32.018Z,99325.28
2023-01-01T19:11:04.811Z,99323.66
2023-01-01T19:13:36.669Z,99326.47
2023-01-01T19:16:27.746Z,99329.72
2023-01-01T19:19:20.028Z,99317.34
2023-01-01T19:21:52.172Z,99329.25
2023-01-01T19:24:27.571Z,99327.59
2023-01-01T19:27:04.526Z,99329.72
2023-01-01T19:29:41.790Z,99324.69
2023-01-01T19:32:11.341Z,99319.78
2023-01-01T19:34:40.628Z,99322.22
2023-01-01T19:37:10.746Z,99318.53
2023-01-01T19:39:42.504Z,99327.97
2023-01-01T19:42:12.951Z,99325.03
2023-01-01T19:44:43.182Z,99325.03
2023-01-01T19:47:14.332Z,99325.84
2023-01-01T19:49:49.416Z,99328.31
2023-01-01T19:52:23.255Z,99317.09
2023-01-01T19:54:54.940Z,99315.34
2023-01-01T19:57:24.601Z,99304.97
2023-01-01T19:59:54.992Z,99300.16
2023-01-01T20:05:14.639Z,99302.84
2023-01-01T20:07:45.099Z,99294.56
2023-01-01T20:10:22.016Z,99296.19
2023-01-01T20:14:14.911Z,99301.53
2023-01-01T20:16:47.461Z,99296.41
2023-01-01T20:19:17.007Z,99294.22
2023-01-01T20:22:04.186Z,99293.41
2023-01-01T20:24:33.517Z,99290.72
2023-01-01T20:27:06.999Z,99286.63
2023-01-01T20:29:39.818Z,99282.88
2023-01-01T20:32:13.038Z,99286.88
2023-01-01T20:34:43.328Z,99278.00
2023-01-01T20:37:31.479Z,99278.25
2023-01-01T20:40:01.137Z,99274.97
2023-01-01T20:42:33.350Z,99276.03
2023-01-01T20:45:13.931Z,99272.78
2023-01-01T20:48:03.854Z,99274.84
2023-01-01T20:50:33.629Z,99273.81
2023-01-01T20:53:03.477Z,99275.78
2023-01-01T20:55:32.903Z,99277.44
2023-01-01T20:58:05.538Z,99263.09
2023-01-01T21:00:35.230Z,99269.38
2023-01-01T21:03:09.326Z,99268.56
2023-01-01T21:05:39.814Z,99261.34
2023-01-01T21:08:09.943Z,99267.41
2023-01-01T21:10:40.373Z,99267.41
2023-01-01T21:13:12.276Z,99263.31
2023-01-01T21:15:42.532Z,99253.88
2023-01-01T21:18:13.732Z,99257.94
2023-01-01T21:20:47.928Z,99251.06
2023-01-01T21:23:24.787Z,99254.13
2023-01-01T21:25:53.640Z,99250.63
2023-01-01T21:28:35.241Z,99242.91
2023-01-01T21:31:12.305Z,99241.84
2023-01-01T21:33:43.263Z,99232.78
2023-01-01T21:36:20.532Z,99234.75
2023-01-01T21:38:50.529Z,99235.69
2023-01-01T21:41:23.898Z,99225.31
2023-01-01T21:43:59.343Z,99231.50
2023-01-01T21:46:36.108Z,99227.41
2023-01-01T21:49:17.101Z,99228.56
2023-01-01T21:51:53.753Z,99231.84
2023-01-01T21:54:33.191Z,99224.13
2023-01-01T21:57:14.366Z,99216.44
2023-01-01T21:59:47.843Z,99220.75
2023-01-01T22:02:39.712Z,99210.53
2023-01-01T22:05:34.265Z,99214.25
2023-01-01T22:08:25.339Z,99223.00
2023-01-01T22:10:54.256Z,99208.41
2023-01-01T22:13:25.233Z,99208.88
2023-01-01T22:15:55.485Z,99210.28
2023-01-01T22:18:31.185Z,99206.31
2023-01-01T22:21:02.827Z,99205.59
2023-01-01T22:24:13.168Z,99206.66
2023-01-01T22:26:42.339Z,99204.47
2023-01-01T22:29:25.593Z,99195.81
2023-01-01T22:32:14.174Z,99194.53
2023-01-01T22:34:42.975Z,99191.38
2023-01-01T22:37:20.991Z,99192.00
2023-01-01T22:39:50.959Z,99190.13
2023-01-01T22:42:23.350Z,99178.22
2023-01-01T22:45:00.241Z,99195.94
2023-01-01T22:47:37.441Z,99180.22
2023-01-01T22:50:14.108Z,99184.88
2023-01-01T22:52:42.872Z,99186.03
2023-01-01T22:55:11.763Z,99176.94
2023-01-01T22:57:41.832Z,99165.06
2023-01-01T23:00:14.124Z,99167.13
2023-01-01T23:02:44.445Z,99166.69
2023-01-01T23:05:13.803Z,99173.69
2023-01-01T23:07:44.064Z,99154.47
2023-01-01T23:10:16.140Z,99147.56
2023-01-01T23:12:45.028Z,99152.91
2023-01-01T23:15:31.416Z,99144.88
2023-01-01T23:18:01.874Z,99138.13
2023-01-01T23:20:33.839Z,99142.00
2023-01-01T23:23:03.613Z,99131.59
2023-01-01T23:25:32.464Z,99130.22
2023-01-01T23:28:01.693Z,99122.75
2023-01-01T23:30:30.639Z,99121.44
2023-01-01T23:33:00.930Z,99120.41
2023-01-01T23:35:29.862Z,99119.81
2023-01-01T23:37:58.914Z,99122.84
2023-01-01T23:40:27.822Z,99123.78
2023-01-01T23:42:56.539Z,99126.34
2023-01-01T23:45:25.467Z,99124.03
2023-01-01T23:47:55.102Z,99116.06
2023-01-01T23:50:25.860Z,99122.03
2023-01-01T23:52:54.977Z,99113.50
2023-01-01T23:55:23.858Z,99116.97
2023-01-01T23:57:52.624Z,99110.00
